sensor_id;sensor_type;location;lat;lon;timestamp;P1;durP1;ratioP1;P2;durP2;ratioP2
16033;SDS011;8121;51.418;6.998;2023-07-02T00:04:26;1.70;;;1.60;;
16033;SDS011;8121;51.418;6.998;2023-07-02T00:09:28;3.57;;;1.77;;
16033;SDS011;8121;51.418;6.998;2023-07-02T00:14:29;2.80;;;2.07;;
16033;SDS011;8121;51.418;6.998;2023-07-02T00:19:32;4.30;;;2.10;;
16033;SDS011;8121;51.418;6.998;2023-07-02T00:24:33;1.67;;;1.40;;
16033;SDS011;8121;51.418;6.998;2023-07-02T00:29:35;4.93;;;2.50;;
16033;SDS011;8121;51.418;6.998;2023-07-02T00:34:38;3.30;;;2.10;;
16033;SDS011;8121;51.418;6.998;2023-07-02T00:39:39;1.30;;;1.20;;
16033;SDS011;8121;51.418;6.998;2023-07-02T00:44:40;6.40;;;2.30;;
16033;SDS011;8121;51.418;6.998;2023-07-02T00:49:43;3.87;;;2.27;;
16033;SDS011;8121;51.418;6.998;2023-07-02T00:54:45;1.70;;;1.60;;
16033;SDS011;8121;51.418;6.998;2023-07-02T00:59:47;2.23;;;2.00;;
16033;SDS011;8121;51.418;6.998;2023-07-02T01:04:49;4.23;;;2.20;;
16033;SDS011;8121;51.418;6.998;2023-07-02T01:09:52;2.00;;;1.53;;
16033;SDS011;8121;51.418;6.998;2023-07-02T01:14:53;5.67;;;3.20;;
16033;SDS011;8121;51.418;6.998;2023-07-02T01:20:00;2.40;;;2.03;;
16033;SDS011;8121;51.418;6.998;2023-07-02T01:25:02;10.70;;;3.03;;
16033;SDS011;8121;51.418;6.998;2023-07-02T01:30:06;3.30;;;2.60;;
16033;SDS011;8121;51.418;6.998;2023-07-02T01:35:10;3.00;;;2.20;;
16033;SDS011;8121;51.418;6.998;2023-07-02T01:40:13;2.83;;;2.10;;
16033;SDS011;8121;51.418;6.998;2023-07-02T01:45:15;3.57;;;1.93;;
16033;SDS011;8121;51.418;6.998;2023-07-02T01:50:19;2.20;;;1.83;;
16033;SDS011;8121;51.418;6.998;2023-07-02T01:55:21;3.73;;;2.00;;
16033;SDS011;8121;51.418;6.998;2023-07-02T02:00:23;4.73;;;3.27;;
16033;SDS011;8121;51.418;6.998;2023-07-02T02:05:27;2.03;;;1.80;;
16033;SDS011;8121;51.418;6.998;2023-07-02T02:10:29;15.23;;;3.80;;
16033;SDS011;8121;51.418;6.998;2023-07-02T02:15:32;5.63;;;2.67;;
16033;SDS011;8121;51.418;6.998;2023-07-02T02:20:36;18.67;;;4.50;;
16033;SDS011;8121;51.418;6.998;2023-07-02T02:25:37;7.13;;;3.20;;
16033;SDS011;8121;51.418;6.998;2023-07-02T02:30:39;4.67;;;3.30;;
16033;SDS011;8121;51.418;6.998;2023-07-02T02:35:43;9.53;;;3.40;;
16033;SDS011;8121;51.418;6.998;2023-07-02T02:40:45;8.17;;;4.30;;
16033;SDS011;8121;51.418;6.998;2023-07-02T02:45:49;5.57;;;4.10;;
16033;SDS011;8121;51.418;6.998;2023-07-02T02:50:53;11.93;;;4.97;;
16033;SDS011;8121;51.418;6.998;2023-07-02T02:55:55;11.70;;;5.03;;
16033;SDS011;8121;51.418;6.998;2023-07-02T03:00:57;9.13;;;4.47;;
16033;SDS011;8121;51.418;6.998;2023-07-02T03:06:00;13.40;;;5.20;;
16033;SDS011;8121;51.418;6.998;2023-07-02T03:11:02;8.20;;;4.50;;
16033;SDS011;8121;51.418;6.998;2023-07-02T03:16:03;8.50;;;4.20;;
16033;SDS011;8121;51.418;6.998;2023-07-02T03:21:08;13.00;;;6.30;;
16033;SDS011;8121;51.418;6.998;2023-07-02T03:26:10;7.73;;;4.00;;
16033;SDS011;8121;51.418;6.998;2023-07-02T03:31:11;10.70;;;5.40;;
16033;SDS011;8121;51.418;6.998;2023-07-02T03:36:15;13.93;;;5.90;;
16033;SDS011;8121;51.418;6.998;2023-07-02T03:41:18;21.60;;;7.33;;
16033;SDS011;8121;51.418;6.998;2023-07-02T03:46:20;13.50;;;5.97;;
16033;SDS011;8121;51.418;6.998;2023-07-02T03:51:23;9.70;;;5.70;;
16033;SDS011;8121;51.418;6.998;2023-07-02T03:56:25;8.40;;;4.70;;
16033;SDS011;8121;51.418;6.998;2023-07-02T04:01:27;13.97;;;5.17;;
16033;SDS011;8121;51.418;6.998;2023-07-02T04:06:31;20.73;;;8.50;;
16033;SDS011;8121;51.418;6.998;2023-07-02T04:11:34;13.67;;;7.33;;
16033;SDS011;8121;51.418;6.998;2023-07-02T04:16:35;13.33;;;7.17;;
16033;SDS011;8121;51.418;6.998;2023-07-02T04:21:41;19.93;;;7.97;;
16033;SDS011;8121;51.418;6.998;2023-07-02T04:26:43;23.40;;;8.03;;
16033;SDS011;8121;51.418;6.998;2023-07-02T04:31:44;7.70;;;5.50;;
16033;SDS011;8121;51.418;6.998;2023-07-02T04:36:47;21.57;;;7.67;;
16033;SDS011;8121;51.418;6.998;2023-07-02T04:41:49;21.23;;;6.83;;
16033;SDS011;8121;51.418;6.998;2023-07-02T04:46:52;12.63;;;5.87;;
16033;SDS011;8121;51.418;6.998;2023-07-02T04:51:56;14.83;;;6.73;;
16033;SDS011;8121;51.418;6.998;2023-07-02T04:56:57;10.87;;;5.70;;
16033;SDS011;8121;51.418;6.998;2023-07-02T05:02:00;19.30;;;8.50;;
16033;SDS011;8121;51.418;6.998;2023-07-02T05:07:03;14.53;;;7.03;;
16033;SDS011;8121;51.418;6.998;2023-07-02T05:12:06;18.97;;;7.60;;
16033;SDS011;8121;51.418;6.998;2023-07-02T05:17:08;9.97;;;6.53;;
16033;SDS011;8121;51.418;6.998;2023-07-02T05:22:11;15.00;;;8.30;;
16033;SDS011;8121;51.418;6.998;2023-07-02T05:27:13;16.77;;;10.23;;
16033;SDS011;8121;51.418;6.998;2023-07-02T05:32:15;16.83;;;7.00;;
16033;SDS011;8121;51.418;6.998;2023-07-02T05:37:18;16.80;;;8.47;;
16033;SDS011;8121;51.418;6.998;2023-07-02T05:42:20;21.93;;;9.53;;
16033;SDS011;8121;51.418;6.998;2023-07-02T05:47:22;17.23;;;9.83;;
16033;SDS011;8121;51.418;6.998;2023-07-02T05:52:25;14.73;;;7.67;;
16033;SDS011;8121;51.418;6.998;2023-07-02T05:57:27;25.87;;;8.90;;
16033;SDS011;8121;51.418;6.998;2023-07-02T06:02:29;18.20;;;8.80;;
16033;SDS011;8121;51.418;6.998;2023-07-02T06:07:32;22.70;;;9.20;;
16033;SDS011;8121;51.418;6.998;2023-07-02T06:12:34;19.20;;;9.80;;
16033;SDS011;8121;51.418;6.998;2023-07-02T06:17:36;15.57;;;8.37;;
16033;SDS011;8121;51.418;6.998;2023-07-02T06:22:39;17.97;;;9.57;;
16033;SDS011;8121;51.418;6.998;2023-07-02T06:27:42;17.17;;;8.87;;
16033;SDS011;8121;51.418;6.998;2023-07-02T06:32:44;15.30;;;7.23;;
16033;SDS011;8121;51.418;6.998;2023-07-02T06:37:49;27.13;;;11.03;;
16033;SDS011;8121;51.418;6.998;2023-07-02T06:42:51;21.43;;;11.00;;
16033;SDS011;8121;51.418;6.998;2023-07-02T06:47:53;20.13;;;9.23;;
16033;SDS011;8121;51.418;6.998;2023-07-02T06:52:57;14.40;;;6.70;;
16033;SDS011;8121;51.418;6.998;2023-07-02T06:57:58;16.47;;;7.63;;
16033;SDS011;8121;51.418;6.998;2023-07-02T07:03:00;10.20;;;6.00;;
16033;SDS011;8121;51.418;6.998;2023-07-02T07:08:04;15.27;;;7.17;;
16033;SDS011;8121;51.418;6.998;2023-07-02T07:13:05;24.20;;;8.47;;
16033;SDS011;8121;51.418;6.998;2023-07-02T07:18:08;11.60;;;5.57;;
16033;SDS011;8121;51.418;6.998;2023-07-02T07:23:11;13.57;;;5.33;;
16033;SDS011;8121;51.418;6.998;2023-07-02T07:28:17;17.90;;;8.00;;
16033;SDS011;8121;51.418;6.998;2023-07-02T07:33:19;13.30;;;7.93;;
16033;SDS011;8121;51.418;6.998;2023-07-02T07:38:26;16.47;;;6.93;;
16033;SDS011;8121;51.418;6.998;2023-07-02T07:43:27;14.07;;;7.10;;
16033;SDS011;8121;51.418;6.998;2023-07-02T07:48:29;15.50;;;7.90;;
16033;SDS011;8121;51.418;6.998;2023-07-02T07:53:32;20.40;;;8.57;;
16033;SDS011;8121;51.418;6.998;2023-07-02T07:58:34;14.10;;;6.93;;
16033;SDS011;8121;51.418;6.998;2023-07-02T08:03:36;11.83;;;5.53;;
16033;SDS011;8121;51.418;6.998;2023-07-02T08:08:40;14.00;;;6.97;;
16033;SDS011;8121;51.418;6.998;2023-07-02T08:13:42;16.20;;;8.10;;
16033;SDS011;8121;51.418;6.998;2023-07-02T08:18:43;18.27;;;6.67;;
16033;SDS011;8121;51.418;6.998;2023-07-02T08:23:46;12.10;;;6.20;;
16033;SDS011;8121;51.418;6.998;2023-07-02T08:28:48;18.40;;;6.37;;
16033;SDS011;8121;51.418;6.998;2023-07-02T08:33:49;13.80;;;5.93;;
16033;SDS011;8121;51.418;6.998;2023-07-02T08:38:53;13.67;;;5.60;;
16033;SDS011;8121;51.418;6.998;2023-07-02T08:43:55;19.90;;;7.10;;
16033;SDS011;8121;51.418;6.998;2023-07-02T08:48:56;17.50;;;6.57;;
16033;SDS011;8121;51.418;6.998;2023-07-02T08:54:02;10.77;;;5.50;;
16033;SDS011;8121;51.418;6.998;2023-07-02T08:59:06;12.40;;;6.28;;
16033;SDS011;8121;51.418;6.998;2023-07-02T09:04:14;16.17;;;6.70;;
16033;SDS011;8121;51.418;6.998;2023-07-02T09:09:18;10.63;;;5.03;;
16033;SDS011;8121;51.418;6.998;2023-07-02T09:14:26;12.63;;;5.30;;
16033;SDS011;8121;51.418;6.998;2023-07-02T09:19:28;9.37;;;5.70;;
16033;SDS011;8121;51.418;6.998;2023-07-02T09:24:31;13.70;;;5.60;;
16033;SDS011;8121;51.418;6.998;2023-07-02T09:29:33;16.27;;;6.70;;
16033;SDS011;8121;51.418;6.998;2023-07-02T09:34:36;12.37;;;5.73;;
16033;SDS011;8121;51.418;6.998;2023-07-02T09:39:40;14.93;;;5.50;;
16033;SDS011;8121;51.418;6.998;2023-07-02T09:44:41;18.17;;;7.17;;
16033;SDS011;8121;51.418;6.998;2023-07-02T09:49:45;7.07;;;4.77;;
16033;SDS011;8121;51.418;6.998;2023-07-02T09:54:52;8.20;;;4.80;;
16033;SDS011;8121;51.418;6.998;2023-07-02T09:59:54;13.93;;;6.60;;
16033;SDS011;8121;51.418;6.998;2023-07-02T10:04:55;12.40;;;6.13;;
16033;SDS011;8121;51.418;6.998;2023-07-02T10:09:59;17.97;;;7.37;;
16033;SDS011;8121;51.418;6.998;2023-07-02T10:15:00;19.17;;;7.27;;
16033;SDS011;8121;51.418;6.998;2023-07-02T10:20:03;8.90;;;4.80;;
16033;SDS011;8121;51.418;6.998;2023-07-02T10:25:08;7.00;;;5.10;;
16033;SDS011;8121;51.418;6.998;2023-07-02T10:30:10;10.00;;;4.80;;
16033;SDS011;8121;51.418;6.998;2023-07-02T10:35:15;12.93;;;6.27;;
16033;SDS011;8121;51.418;6.998;2023-07-02T10:40:19;12.37;;;5.30;;
16033;SDS011;8121;51.418;6.998;2023-07-02T10:45:30;16.27;;;5.57;;
16033;SDS011;8121;51.418;6.998;2023-07-02T10:50:32;14.77;;;5.73;;
16033;SDS011;8121;51.418;6.998;2023-07-02T10:55:35;14.13;;;6.10;;
16033;SDS011;8121;51.418;6.998;2023-07-02T11:00:43;14.80;;;5.93;;
16033;SDS011;8121;51.418;6.998;2023-07-02T11:05:45;8.50;;;4.17;;
16033;SDS011;8121;51.418;6.998;2023-07-02T11:10:49;12.67;;;5.83;;
16033;SDS011;8121;51.418;6.998;2023-07-02T11:15:50;15.33;;;5.47;;
16033;SDS011;8121;51.418;6.998;2023-07-02T11:20:52;10.80;;;5.40;;
16033;SDS011;8121;51.418;6.998;2023-07-02T11:25:56;10.13;;;4.83;;
16033;SDS011;8121;51.418;6.998;2023-07-02T11:30:58;9.93;;;4.67;;
16033;SDS011;8121;51.418;6.998;2023-07-02T11:36:00;7.23;;;4.30;;
16033;SDS011;8121;51.418;6.998;2023-07-02T11:41:03;5.90;;;4.07;;
16033;SDS011;8121;51.418;6.998;2023-07-02T11:46:05;6.27;;;3.83;;
16033;SDS011;8121;51.418;6.998;2023-07-02T11:51:06;11.97;;;5.23;;
16033;SDS011;8121;51.418;6.998;2023-07-02T11:56:09;10.60;;;4.63;;
16033;SDS011;8121;51.418;6.998;2023-07-02T12:01:13;9.80;;;4.63;;
16033;SDS011;8121;51.418;6.998;2023-07-02T12:06:14;12.53;;;4.07;;
16033;SDS011;8121;51.418;6.998;2023-07-02T12:11:17;5.70;;;3.83;;
16033;SDS011;8121;51.418;6.998;2023-07-02T12:16:19;10.90;;;5.07;;
16033;SDS011;8121;51.418;6.998;2023-07-02T12:21:20;14.00;;;5.37;;
16033;SDS011;8121;51.418;6.998;2023-07-02T12:26:23;6.60;;;4.10;;
16033;SDS011;8121;51.418;6.998;2023-07-02T12:31:25;9.83;;;4.50;;
16033;SDS011;8121;51.418;6.998;2023-07-02T12:36:26;9.33;;;4.87;;
16033;SDS011;8121;51.418;6.998;2023-07-02T12:41:29;6.40;;;3.90;;
16033;SDS011;8121;51.418;6.998;2023-07-02T12:46:31;8.60;;;4.13;;
16033;SDS011;8121;51.418;6.998;2023-07-02T12:51:32;8.20;;;3.70;;
16033;SDS011;8121;51.418;6.998;2023-07-02T12:56:35;8.70;;;4.23;;
16033;SDS011;8121;51.418;6.998;2023-07-02T13:01:37;10.83;;;5.37;;
16033;SDS011;8121;51.418;6.998;2023-07-02T13:06:38;9.77;;;5.27;;
16033;SDS011;8121;51.418;6.998;2023-07-02T13:11:41;6.80;;;4.40;;
16033;SDS011;8121;51.418;6.998;2023-07-02T13:16:43;5.57;;;4.10;;
16033;SDS011;8121;51.418;6.998;2023-07-02T13:21:44;15.10;;;5.97;;
16033;SDS011;8121;51.418;6.998;2023-07-02T13:26:47;15.40;;;5.77;;
16033;SDS011;8121;51.418;6.998;2023-07-02T13:31:49;6.23;;;4.27;;
16033;SDS011;8121;51.418;6.998;2023-07-02T13:36:50;7.90;;;5.00;;
16033;SDS011;8121;51.418;6.998;2023-07-02T13:41:53;7.17;;;4.30;;
16033;SDS011;8121;51.418;6.998;2023-07-02T13:46:54;10.90;;;4.17;;
16033;SDS011;8121;51.418;6.998;2023-07-02T13:51:56;8.80;;;4.30;;
16033;SDS011;8121;51.418;6.998;2023-07-02T13:56:59;21.07;;;7.30;;
16033;SDS011;8121;51.418;6.998;2023-07-02T14:02:02;13.37;;;5.27;;
16033;SDS011;8121;51.418;6.998;2023-07-02T14:07:03;16.97;;;6.03;;
16033;SDS011;8121;51.418;6.998;2023-07-02T14:12:05;7.83;;;4.63;;
16033;SDS011;8121;51.418;6.998;2023-07-02T14:17:09;11.40;;;5.33;;
16033;SDS011;8121;51.418;6.998;2023-07-02T14:22:10;10.90;;;5.47;;
16033;SDS011;8121;51.418;6.998;2023-07-02T14:27:11;10.63;;;5.60;;
16033;SDS011;8121;51.418;6.998;2023-07-02T14:32:14;9.60;;;5.67;;
16033;SDS011;8121;51.418;6.998;2023-07-02T14:37:16;9.30;;;5.00;;
16033;SDS011;8121;51.418;6.998;2023-07-02T14:42:17;16.17;;;5.53;;
16033;SDS011;8121;51.418;6.998;2023-07-02T14:47:20;17.60;;;6.60;;
16033;SDS011;8121;51.418;6.998;2023-07-02T14:52:22;7.13;;;4.83;;
16033;SDS011;8121;51.418;6.998;2023-07-02T14:57:23;11.47;;;5.43;;
16033;SDS011;8121;51.418;6.998;2023-07-02T15:02:26;16.67;;;7.27;;
16033;SDS011;8121;51.418;6.998;2023-07-02T15:07:28;15.67;;;7.20;;
16033;SDS011;8121;51.418;6.998;2023-07-02T15:12:29;12.80;;;6.37;;
16033;SDS011;8121;51.418;6.998;2023-07-02T15:17:32;21.30;;;7.40;;
16033;SDS011;8121;51.418;6.998;2023-07-02T15:22:34;19.80;;;7.57;;
16033;SDS011;8121;51.418;6.998;2023-07-02T15:27:35;10.83;;;5.20;;
16033;SDS011;8121;51.418;6.998;2023-07-02T15:32:40;9.87;;;5.10;;
16033;SDS011;8121;51.418;6.998;2023-07-02T15:37:41;8.70;;;4.83;;
16033;SDS011;8121;51.418;6.998;2023-07-02T15:42:43;9.70;;;5.20;;
16033;SDS011;8121;51.418;6.998;2023-07-02T15:47:45;7.40;;;4.23;;
16033;SDS011;8121;51.418;6.998;2023-07-02T15:52:47;7.90;;;5.03;;
16033;SDS011;8121;51.418;6.998;2023-07-02T15:57:49;16.60;;;7.17;;
16033;SDS011;8121;51.418;6.998;2023-07-02T16:02:52;19.07;;;7.53;;
16033;SDS011;8121;51.418;6.998;2023-07-02T16:07:54;10.10;;;6.03;;
16033;SDS011;8121;51.418;6.998;2023-07-02T16:12:55;15.00;;;6.70;;
16033;SDS011;8121;51.418;6.998;2023-07-02T16:17:58;10.23;;;4.23;;
16033;SDS011;8121;51.418;6.998;2023-07-02T16:23:00;12.20;;;6.17;;
16033;SDS011;8121;51.418;6.998;2023-07-02T16:28:01;15.40;;;6.30;;
16033;SDS011;8121;51.418;6.998;2023-07-02T16:33:04;12.40;;;6.47;;
16033;SDS011;8121;51.418;6.998;2023-07-02T16:38:06;16.47;;;6.70;;
16033;SDS011;8121;51.418;6.998;2023-07-02T16:43:07;17.00;;;6.20;;
16033;SDS011;8121;51.418;6.998;2023-07-02T16:48:11;15.37;;;5.20;;
16033;SDS011;8121;51.418;6.998;2023-07-02T16:53:12;10.33;;;4.90;;
16033;SDS011;8121;51.418;6.998;2023-07-02T16:58:14;19.00;;;7.10;;
16033;SDS011;8121;51.418;6.998;2023-07-02T17:03:16;9.83;;;5.30;;
16033;SDS011;8121;51.418;6.998;2023-07-02T17:08:18;8.47;;;4.30;;
16033;SDS011;8121;51.418;6.998;2023-07-02T17:13:19;10.07;;;4.73;;
16033;SDS011;8121;51.418;6.998;2023-07-02T17:18:22;11.83;;;5.23;;
16033;SDS011;8121;51.418;6.998;2023-07-02T17:23:24;11.57;;;4.93;;
16033;SDS011;8121;51.418;6.998;2023-07-02T17:28:25;7.10;;;4.90;;
16033;SDS011;8121;51.418;6.998;2023-07-02T17:33:28;11.50;;;5.13;;
16033;SDS011;8121;51.418;6.998;2023-07-02T17:38:30;6.00;;;4.40;;
16033;SDS011;8121;51.418;6.998;2023-07-02T17:43:31;9.03;;;5.17;;
16033;SDS011;8121;51.418;6.998;2023-07-02T17:48:34;8.50;;;3.43;;
16033;SDS011;8121;51.418;6.998;2023-07-02T17:53:35;9.87;;;4.40;;
16033;SDS011;8121;51.418;6.998;2023-07-02T17:58:37;13.63;;;4.70;;
16033;SDS011;8121;51.418;6.998;2023-07-02T18:03:40;11.63;;;5.90;;
16033;SDS011;8121;51.418;6.998;2023-07-02T18:08:41;5.10;;;3.87;;
16033;SDS011;8121;51.418;6.998;2023-07-02T18:13:43;5.50;;;3.60;;
16033;SDS011;8121;51.418;6.998;2023-07-02T18:18:45;7.37;;;3.10;;
16033;SDS011;8121;51.418;6.998;2023-07-02T18:23:47;4.67;;;3.50;;
16033;SDS011;8121;51.418;6.998;2023-07-02T18:28:49;8.60;;;4.17;;
16033;SDS011;8121;51.418;6.998;2023-07-02T18:33:51;9.87;;;5.83;;
16033;SDS011;8121;51.418;6.998;2023-07-02T18:38:53;9.03;;;4.00;;
16033;SDS011;8121;51.418;6.998;2023-07-02T18:43:54;8.50;;;4.10;;
16033;SDS011;8121;51.418;6.998;2023-07-02T18:48:58;6.57;;;3.67;;
16033;SDS011;8121;51.418;6.998;2023-07-02T18:54:00;7.17;;;3.80;;
16033;SDS011;8121;51.418;6.998;2023-07-02T18:59:02;11.17;;;4.43;;
16033;SDS011;8121;51.418;6.998;2023-07-02T19:04:05;6.40;;;3.53;;
16033;SDS011;8121;51.418;6.998;2023-07-02T19:09:07;4.90;;;3.20;;
16033;SDS011;8121;51.418;6.998;2023-07-02T19:14:08;9.77;;;4.20;;
16033;SDS011;8121;51.418;6.998;2023-07-02T19:19:11;7.27;;;4.17;;
16033;SDS011;8121;51.418;6.998;2023-07-02T19:24:12;8.73;;;3.97;;
16033;SDS011;8121;51.418;6.998;2023-07-02T19:29:14;7.33;;;4.30;;
16033;SDS011;8121;51.418;6.998;2023-07-02T19:34:17;3.73;;;2.93;;
16033;SDS011;8121;51.418;6.998;2023-07-02T19:39:19;8.07;;;4.30;;
16033;SDS011;8121;51.418;6.998;2023-07-02T19:44:25;6.00;;;3.43;;
16033;SDS011;8121;51.418;6.998;2023-07-02T19:49:28;12.00;;;3.83;;
16033;SDS011;8121;51.418;6.998;2023-07-02T19:54:30;10.30;;;5.63;;
16033;SDS011;8121;51.418;6.998;2023-07-02T19:59:31;5.97;;;3.90;;
16033;SDS011;8121;51.418;6.998;2023-07-02T20:04:35;7.70;;;4.27;;
16033;SDS011;8121;51.418;6.998;2023-07-02T20:09:36;7.10;;;4.10;;
16033;SDS011;8121;51.418;6.998;2023-07-02T20:14:40;4.57;;;3.47;;
16033;SDS011;8121;51.418;6.998;2023-07-02T20:19:44;5.80;;;3.60;;
16033;SDS011;8121;51.418;6.998;2023-07-02T20:24:51;6.33;;;3.97;;
16033;SDS011;8121;51.418;6.998;2023-07-02T20:29:53;7.17;;;3.63;;
16033;SDS011;8121;51.418;6.998;2023-07-02T20:34:55;17.50;;;6.80;;
16033;SDS011;8121;51.418;6.998;2023-07-02T20:39:57;10.43;;;5.20;;
16033;SDS011;8121;51.418;6.998;2023-07-02T20:45:11;4.40;;;3.67;;
16033;SDS011;8121;51.418;6.998;2023-07-02T20:50:15;6.10;;;3.33;;
16033;SDS011;8121;51.418;6.998;2023-07-02T20:55:16;14.30;;;4.57;;
16033;SDS011;8121;51.418;6.998;2023-07-02T21:00:18;6.40;;;2.90;;
16033;SDS011;8121;51.418;6.998;2023-07-02T21:05:21;8.37;;;3.63;;
16033;SDS011;8121;51.418;6.998;2023-07-02T21:10:22;11.53;;;3.90;;
16033;SDS011;8121;51.418;6.998;2023-07-02T21:15:24;10.73;;;3.30;;
16033;SDS011;8121;51.418;6.998;2023-07-02T21:20:27;4.13;;;2.87;;
16033;SDS011;8121;51.418;6.998;2023-07-02T21:25:28;9.30;;;3.83;;
16033;SDS011;8121;51.418;6.998;2023-07-02T21:30:31;7.37;;;2.13;;
16033;SDS011;8121;51.418;6.998;2023-07-02T21:35:33;12.00;;;2.83;;
16033;SDS011;8121;51.418;6.998;2023-07-02T21:40:35;4.50;;;2.50;;
16033;SDS011;8121;51.418;6.998;2023-07-02T21:45:37;8.40;;;3.30;;
16033;SDS011;8121;51.418;6.998;2023-07-02T21:50:39;5.77;;;2.73;;
16033;SDS011;8121;51.418;6.998;2023-07-02T21:55:41;3.10;;;1.80;;
16033;SDS011;8121;51.418;6.998;2023-07-02T22:00:42;3.53;;;2.00;;
16033;SDS011;8121;51.418;6.998;2023-07-02T22:05:49;5.00;;;2.40;;
16033;SDS011;8121;51.418;6.998;2023-07-02T22:10:51;4.73;;;2.27;;
16033;SDS011;8121;51.418;6.998;2023-07-02T22:15:52;6.83;;;2.80;;
16033;SDS011;8121;51.418;6.998;2023-07-02T22:20:55;2.30;;;1.70;;
16033;SDS011;8121;51.418;6.998;2023-07-02T22:25:57;9.37;;;3.37;;
16033;SDS011;8121;51.418;6.998;2023-07-02T22:30:58;3.63;;;2.10;;
16033;SDS011;8121;51.418;6.998;2023-07-02T22:36:04;7.30;;;2.70;;
16033;SDS011;8121;51.418;6.998;2023-07-02T22:41:06;8.17;;;3.33;;
16033;SDS011;8121;51.418;6.998;2023-07-02T22:46:07;4.90;;;3.70;;
16033;SDS011;8121;51.418;6.998;2023-07-02T22:51:10;15.50;;;3.93;;
16033;SDS011;8121;51.418;6.998;2023-07-02T22:56:12;13.70;;;4.13;;
16033;SDS011;8121;51.418;6.998;2023-07-02T23:01:15;4.07;;;1.93;;
16033;SDS011;8121;51.418;6.998;2023-07-02T23:06:18;13.30;;;2.50;;
16033;SDS011;8121;51.418;6.998;2023-07-02T23:11:22;9.17;;;3.30;;
16033;SDS011;8121;51.418;6.998;2023-07-02T23:16:24;13.43;;;3.50;;
16033;SDS011;8121;51.418;6.998;2023-07-02T23:21:27;2.67;;;1.30;;
16033;SDS011;8121;51.418;6.998;2023-07-02T23:26:28;16.33;;;3.40;;
16033;SDS011;8121;51.418;6.998;2023-07-02T23:31:31;5.27;;;2.40;;
16033;SDS011;8121;51.418;6.998;2023-07-02T23:36:34;8.63;;;2.47;;
16033;SDS011;8121;51.418;6.998;2023-07-02T23:41:36;4.37;;;1.83;;
16033;SDS011;8121;51.418;6.998;2023-07-02T23:46:37;5.03;;;1.83;;
16033;SDS011;8121;51.418;6.998;2023-07-02T23:51:40;8.83;;;2.40;;
16033;SDS011;8121;51.418;6.998;2023-07-02T23:56:42;3.23;;;1.73;;
